Terminal Aerodrome Forecast
Issued by NWS

Current Version | Previous Version | Text Only | Print | Product List | Glossary On
Versions: 1 2 3 4 5 6 7 8 9 10 11 12 13 14 15 16 17
214
FTUS41 KBGM 211129
TAFRME
TAF
KRME 211129Z 2112/2212 10007KT P6SM SCT200
     FM220000 14006KT P6SM OVC100
     FM220200 14004KT 5SM -SHRA OVC025
     FM220500 15004KT P6SM OVC015=

USA.gov is the U.S. government's official web portal to all federal, state and local government web resources and services.